sensor_id;sensor_type;location;lat;lon;timestamp;P1;durP1;ratioP1;P2;durP2;ratioP2
29240;SDS011;16268;49.880;8.648;2023-02-28T00:01:24;5.25;;;2.00;;
29240;SDS011;16268;49.880;8.648;2023-02-28T00:03:49;4.00;;;2.00;;
29240;SDS011;16268;49.880;8.648;2023-02-28T00:06:15;4.40;;;1.70;;
29240;SDS011;16268;49.880;8.648;2023-02-28T00:08:41;4.90;;;1.70;;
29240;SDS011;16268;49.880;8.648;2023-02-28T00:11:08;4.90;;;1.93;;
29240;SDS011;16268;49.880;8.648;2023-02-28T00:13:35;4.70;;;2.00;;
29240;SDS011;16268;49.880;8.648;2023-02-28T00:16:04;4.87;;;1.90;;
29240;SDS011;16268;49.880;8.648;2023-02-28T00:18:32;4.40;;;1.92;;
29240;SDS011;16268;49.880;8.648;2023-02-28T00:20:58;5.33;;;2.10;;
29240;SDS011;16268;49.880;8.648;2023-02-28T00:23:24;4.40;;;2.20;;
29240;SDS011;16268;49.880;8.648;2023-02-28T00:25:50;4.07;;;2.03;;
29240;SDS011;16268;49.880;8.648;2023-02-28T00:28:17;3.10;;;1.67;;
29240;SDS011;16268;49.880;8.648;2023-02-28T00:30:43;4.73;;;2.00;;
29240;SDS011;16268;49.880;8.648;2023-02-28T00:33:08;3.93;;;2.00;;
29240;SDS011;16268;49.880;8.648;2023-02-28T00:35:34;3.78;;;1.98;;
29240;SDS011;16268;49.880;8.648;2023-02-28T00:38:00;4.23;;;2.03;;
29240;SDS011;16268;49.880;8.648;2023-02-28T00:40:26;4.03;;;2.00;;
29240;SDS011;16268;49.880;8.648;2023-02-28T00:42:51;5.13;;;2.10;;
29240;SDS011;16268;49.880;8.648;2023-02-28T00:45:17;4.50;;;2.20;;
29240;SDS011;16268;49.880;8.648;2023-02-28T00:47:42;4.27;;;1.90;;
29240;SDS011;16268;49.880;8.648;2023-02-28T00:50:08;3.77;;;1.70;;
29240;SDS011;16268;49.880;8.648;2023-02-28T00:52:35;4.97;;;1.90;;
29240;SDS011;16268;49.880;8.648;2023-02-28T00:55:00;4.57;;;1.90;;
29240;SDS011;16268;49.880;8.648;2023-02-28T00:57:26;5.13;;;2.10;;
29240;SDS011;16268;49.880;8.648;2023-02-28T00:59:51;4.13;;;2.00;;
29240;SDS011;16268;49.880;8.648;2023-02-28T01:02:19;4.33;;;1.93;;
29240;SDS011;16268;49.880;8.648;2023-02-28T01:04:46;5.57;;;2.10;;
29240;SDS011;16268;49.880;8.648;2023-02-28T01:07:12;3.43;;;1.70;;
29240;SDS011;16268;49.880;8.648;2023-02-28T01:09:38;4.40;;;1.90;;
29240;SDS011;16268;49.880;8.648;2023-02-28T01:12:04;4.63;;;2.00;;
29240;SDS011;16268;49.880;8.648;2023-02-28T01:14:29;3.50;;;1.57;;
29240;SDS011;16268;49.880;8.648;2023-02-28T01:16:55;6.80;;;2.03;;
29240;SDS011;16268;49.880;8.648;2023-02-28T01:19:21;4.40;;;2.10;;
29240;SDS011;16268;49.880;8.648;2023-02-28T01:21:46;5.07;;;1.97;;
29240;SDS011;16268;49.880;8.648;2023-02-28T01:24:12;5.47;;;2.10;;
29240;SDS011;16268;49.880;8.648;2023-02-28T01:26:37;5.83;;;1.80;;
29240;SDS011;16268;49.880;8.648;2023-02-28T01:29:03;4.23;;;1.90;;
29240;SDS011;16268;49.880;8.648;2023-02-28T01:31:28;4.73;;;2.03;;
29240;SDS011;16268;49.880;8.648;2023-02-28T01:33:54;4.03;;;1.80;;
29240;SDS011;16268;49.880;8.648;2023-02-28T01:36:21;3.90;;;1.60;;
29240;SDS011;16268;49.880;8.648;2023-02-28T01:38:47;4.40;;;2.23;;
29240;SDS011;16268;49.880;8.648;2023-02-28T01:41:15;4.53;;;2.00;;
29240;SDS011;16268;49.880;8.648;2023-02-28T01:46:09;4.80;;;2.30;;
29240;SDS011;16268;49.880;8.648;2023-02-28T01:48:36;5.67;;;2.43;;
29240;SDS011;16268;49.880;8.648;2023-02-28T01:51:08;5.90;;;2.33;;
29240;SDS011;16268;49.880;8.648;2023-02-28T01:53:39;5.47;;;2.60;;
29240;SDS011;16268;49.880;8.648;2023-02-28T01:56:10;7.67;;;2.40;;
29240;SDS011;16268;49.880;8.648;2023-02-28T01:58:45;6.33;;;2.63;;
29240;SDS011;16268;49.880;8.648;2023-02-28T02:01:12;5.50;;;2.77;;
29240;SDS011;16268;49.880;8.648;2023-02-28T02:03:46;5.57;;;2.50;;
29240;SDS011;16268;49.880;8.648;2023-02-28T02:06:23;6.27;;;2.90;;
29240;SDS011;16268;49.880;8.648;2023-02-28T02:08:52;8.27;;;3.40;;
29240;SDS011;16268;49.880;8.648;2023-02-28T02:11:18;5.53;;;2.97;;
29240;SDS011;16268;49.880;8.648;2023-02-28T02:13:55;6.93;;;3.20;;
29240;SDS011;16268;49.880;8.648;2023-02-28T02:44:11;6.17;;;2.93;;
29240;SDS011;16268;49.880;8.648;2023-02-28T02:47:08;4.83;;;2.70;;
29240;SDS011;16268;49.880;8.648;2023-02-28T02:49:39;4.80;;;2.67;;
29240;SDS011;16268;49.880;8.648;2023-02-28T02:52:09;5.55;;;3.05;;
29240;SDS011;16268;49.880;8.648;2023-02-28T02:54:37;5.00;;;3.00;;
29240;SDS011;16268;49.880;8.648;2023-02-28T02:57:10;7.90;;;3.22;;
29240;SDS011;16268;49.880;8.648;2023-02-28T02:59:53;7.23;;;3.30;;
29240;SDS011;16268;49.880;8.648;2023-02-28T03:02:21;5.87;;;2.60;;
29240;SDS011;16268;49.880;8.648;2023-02-28T03:04:50;5.60;;;2.83;;
29240;SDS011;16268;49.880;8.648;2023-02-28T03:07:19;8.73;;;2.93;;
29240;SDS011;16268;49.880;8.648;2023-02-28T03:09:51;8.17;;;3.33;;
29240;SDS011;16268;49.880;8.648;2023-02-28T03:12:18;5.57;;;3.20;;
29240;SDS011;16268;49.880;8.648;2023-02-28T03:14:59;7.70;;;3.00;;
29240;SDS011;16268;49.880;8.648;2023-02-28T03:20:27;7.13;;;3.37;;
29240;SDS011;16268;49.880;8.648;2023-02-28T03:23:10;6.00;;;3.30;;
29240;SDS011;16268;49.880;8.648;2023-02-28T03:25:56;5.83;;;3.10;;
29240;SDS011;16268;49.880;8.648;2023-02-28T03:28:35;6.23;;;2.93;;
29240;SDS011;16268;49.880;8.648;2023-02-28T03:31:05;7.83;;;3.00;;
29240;SDS011;16268;49.880;8.648;2023-02-28T03:33:36;6.07;;;2.80;;
29240;SDS011;16268;49.880;8.648;2023-02-28T03:36:10;6.13;;;3.33;;
29240;SDS011;16268;49.880;8.648;2023-02-28T03:41:31;7.07;;;3.10;;
29240;SDS011;16268;49.880;8.648;2023-02-28T03:44:06;7.03;;;3.30;;
29240;SDS011;16268;49.880;8.648;2023-02-28T03:46:40;5.95;;;3.10;;
29240;SDS011;16268;49.880;8.648;2023-02-28T03:49:16;7.93;;;3.50;;
29240;SDS011;16268;49.880;8.648;2023-02-28T03:51:45;6.63;;;3.27;;
29240;SDS011;16268;49.880;8.648;2023-02-28T03:54:14;7.00;;;3.23;;
29240;SDS011;16268;49.880;8.648;2023-02-28T03:56:45;6.13;;;3.10;;
29240;SDS011;16268;49.880;8.648;2023-02-28T04:01:45;5.80;;;3.37;;
29240;SDS011;16268;49.880;8.648;2023-02-28T04:04:13;6.67;;;3.57;;
29240;SDS011;16268;49.880;8.648;2023-02-28T04:06:40;5.57;;;3.07;;
29240;SDS011;16268;49.880;8.648;2023-02-28T04:09:07;5.80;;;3.40;;
29240;SDS011;16268;49.880;8.648;2023-02-28T04:14:00;5.90;;;3.17;;
29240;SDS011;16268;49.880;8.648;2023-02-28T04:16:27;6.30;;;3.53;;
29240;SDS011;16268;49.880;8.648;2023-02-28T04:18:53;7.53;;;3.70;;
29240;SDS011;16268;49.880;8.648;2023-02-28T04:21:18;6.87;;;3.60;;
29240;SDS011;16268;49.880;8.648;2023-02-28T04:23:47;8.60;;;3.80;;
29240;SDS011;16268;49.880;8.648;2023-02-28T04:26:12;8.73;;;3.90;;
29240;SDS011;16268;49.880;8.648;2023-02-28T04:28:38;6.37;;;3.93;;
29240;SDS011;16268;49.880;8.648;2023-02-28T04:31:04;6.27;;;3.27;;
29240;SDS011;16268;49.880;8.648;2023-02-28T04:33:31;6.90;;;3.63;;
29240;SDS011;16268;49.880;8.648;2023-02-28T04:35:58;5.67;;;3.40;;
29240;SDS011;16268;49.880;8.648;2023-02-28T04:38:24;6.07;;;3.30;;
29240;SDS011;16268;49.880;8.648;2023-02-28T04:40:50;6.07;;;3.93;;
29240;SDS011;16268;49.880;8.648;2023-02-28T04:43:15;6.90;;;3.80;;
29240;SDS011;16268;49.880;8.648;2023-02-28T04:45:41;6.70;;;3.70;;
29240;SDS011;16268;49.880;8.648;2023-02-28T04:48:07;6.77;;;3.83;;
29240;SDS011;16268;49.880;8.648;2023-02-28T04:50:32;6.23;;;3.73;;
29240;SDS011;16268;49.880;8.648;2023-02-28T04:52:58;6.57;;;3.57;;
29240;SDS011;16268;49.880;8.648;2023-02-28T04:55:24;5.90;;;3.30;;
29240;SDS011;16268;49.880;8.648;2023-02-28T04:57:49;8.93;;;3.80;;
29240;SDS011;16268;49.880;8.648;2023-02-28T05:00:15;7.17;;;3.63;;
29240;SDS011;16268;49.880;8.648;2023-02-28T05:02:41;6.07;;;3.87;;
29240;SDS011;16268;49.880;8.648;2023-02-28T05:05:07;6.03;;;3.63;;
29240;SDS011;16268;49.880;8.648;2023-02-28T05:07:33;6.17;;;3.90;;
29240;SDS011;16268;49.880;8.648;2023-02-28T05:09:58;7.93;;;3.67;;
29240;SDS011;16268;49.880;8.648;2023-02-28T05:12:24;5.17;;;3.20;;
29240;SDS011;16268;49.880;8.648;2023-02-28T05:14:50;6.57;;;3.70;;
29240;SDS011;16268;49.880;8.648;2023-02-28T05:17:15;7.23;;;3.63;;
29240;SDS011;16268;49.880;8.648;2023-02-28T05:19:41;6.70;;;3.50;;
29240;SDS011;16268;49.880;8.648;2023-02-28T05:22:11;5.97;;;3.50;;
29240;SDS011;16268;49.880;8.648;2023-02-28T05:24:39;6.57;;;3.53;;
29240;SDS011;16268;49.880;8.648;2023-02-28T05:27:04;7.60;;;4.13;;
29240;SDS011;16268;49.880;8.648;2023-02-28T05:29:30;6.67;;;3.50;;
29240;SDS011;16268;49.880;8.648;2023-02-28T05:31:55;5.70;;;3.33;;
29240;SDS011;16268;49.880;8.648;2023-02-28T05:34:21;5.63;;;3.27;;
29240;SDS011;16268;49.880;8.648;2023-02-28T05:36:47;7.43;;;3.30;;
29240;SDS011;16268;49.880;8.648;2023-02-28T05:39:12;6.33;;;3.60;;
29240;SDS011;16268;49.880;8.648;2023-02-28T05:41:39;5.37;;;3.30;;
29240;SDS011;16268;49.880;8.648;2023-02-28T05:44:05;8.70;;;3.53;;
29240;SDS011;16268;49.880;8.648;2023-02-28T05:46:31;6.53;;;3.60;;
29240;SDS011;16268;49.880;8.648;2023-02-28T05:48:57;5.77;;;3.40;;
29240;SDS011;16268;49.880;8.648;2023-02-28T05:51:25;7.37;;;3.50;;
29240;SDS011;16268;49.880;8.648;2023-02-28T05:53:50;8.67;;;3.70;;
29240;SDS011;16268;49.880;8.648;2023-02-28T05:56:16;6.87;;;3.77;;
29240;SDS011;16268;49.880;8.648;2023-02-28T05:58:42;6.10;;;3.40;;
29240;SDS011;16268;49.880;8.648;2023-02-28T06:04:16;6.07;;;3.40;;
29240;SDS011;16268;49.880;8.648;2023-02-28T06:06:44;6.00;;;3.65;;
29240;SDS011;16268;49.880;8.648;2023-02-28T06:09:10;8.80;;;3.73;;
29240;SDS011;16268;49.880;8.648;2023-02-28T06:11:36;6.27;;;3.13;;
29240;SDS011;16268;49.880;8.648;2023-02-28T06:14:02;8.10;;;4.10;;
29240;SDS011;16268;49.880;8.648;2023-02-28T06:16:29;6.70;;;3.40;;
29240;SDS011;16268;49.880;8.648;2023-02-28T06:18:57;7.40;;;3.73;;
29240;SDS011;16268;49.880;8.648;2023-02-28T06:21:23;6.53;;;3.27;;
29240;SDS011;16268;49.880;8.648;2023-02-28T06:23:50;7.90;;;3.97;;
29240;SDS011;16268;49.880;8.648;2023-02-28T06:26:15;9.43;;;3.80;;
29240;SDS011;16268;49.880;8.648;2023-02-28T06:28:41;8.20;;;3.53;;
29240;SDS011;16268;49.880;8.648;2023-02-28T06:31:08;6.20;;;3.50;;
29240;SDS011;16268;49.880;8.648;2023-02-28T06:33:35;6.50;;;3.60;;
29240;SDS011;16268;49.880;8.648;2023-02-28T06:36:01;7.87;;;3.67;;
29240;SDS011;16268;49.880;8.648;2023-02-28T06:38:27;8.53;;;4.47;;
29240;SDS011;16268;49.880;8.648;2023-02-28T06:40:56;7.90;;;4.03;;
29240;SDS011;16268;49.880;8.648;2023-02-28T06:43:23;7.40;;;3.83;;
29240;SDS011;16268;49.880;8.648;2023-02-28T06:45:49;6.40;;;3.40;;
29240;SDS011;16268;49.880;8.648;2023-02-28T06:48:15;7.27;;;3.53;;
29240;SDS011;16268;49.880;8.648;2023-02-28T06:50:41;5.20;;;3.40;;
29240;SDS011;16268;49.880;8.648;2023-02-28T06:53:07;7.80;;;3.90;;
29240;SDS011;16268;49.880;8.648;2023-02-28T06:55:32;8.80;;;3.63;;
29240;SDS011;16268;49.880;8.648;2023-02-28T06:57:58;5.90;;;3.00;;
29240;SDS011;16268;49.880;8.648;2023-02-28T07:00:24;8.43;;;3.80;;
29240;SDS011;16268;49.880;8.648;2023-02-28T07:02:50;6.57;;;3.50;;
29240;SDS011;16268;49.880;8.648;2023-02-28T07:05:15;6.73;;;3.40;;
29240;SDS011;16268;49.880;8.648;2023-02-28T07:07:41;9.80;;;3.40;;
29240;SDS011;16268;49.880;8.648;2023-02-28T07:10:12;6.87;;;3.50;;
29240;SDS011;16268;49.880;8.648;2023-02-28T07:12:39;6.70;;;3.10;;
29240;SDS011;16268;49.880;8.648;2023-02-28T07:15:05;7.03;;;3.00;;
29240;SDS011;16268;49.880;8.648;2023-02-28T07:17:31;5.30;;;3.10;;
29240;SDS011;16268;49.880;8.648;2023-02-28T07:19:56;6.07;;;3.20;;
29240;SDS011;16268;49.880;8.648;2023-02-28T07:22:22;8.47;;;3.50;;
29240;SDS011;16268;49.880;8.648;2023-02-28T07:24:48;6.23;;;3.40;;
29240;SDS011;16268;49.880;8.648;2023-02-28T07:27:13;6.07;;;3.30;;
29240;SDS011;16268;49.880;8.648;2023-02-28T07:29:49;6.40;;;3.03;;
29240;SDS011;16268;49.880;8.648;2023-02-28T07:32:15;5.80;;;2.90;;
29240;SDS011;16268;49.880;8.648;2023-02-28T07:34:41;7.20;;;2.77;;
29240;SDS011;16268;49.880;8.648;2023-02-28T07:37:06;7.23;;;3.00;;
29240;SDS011;16268;49.880;8.648;2023-02-28T07:39:32;5.63;;;2.87;;
29240;SDS011;16268;49.880;8.648;2023-02-28T07:41:57;5.83;;;2.90;;
29240;SDS011;16268;49.880;8.648;2023-02-28T07:44:24;5.80;;;3.00;;
29240;SDS011;16268;49.880;8.648;2023-02-28T07:46:50;4.80;;;2.37;;
29240;SDS011;16268;49.880;8.648;2023-02-28T07:49:17;5.57;;;2.50;;
29240;SDS011;16268;49.880;8.648;2023-02-28T07:51:43;5.10;;;2.90;;
29240;SDS011;16268;49.880;8.648;2023-02-28T07:54:08;6.40;;;2.80;;
29240;SDS011;16268;49.880;8.648;2023-02-28T07:56:34;5.50;;;3.33;;
29240;SDS011;16268;49.880;8.648;2023-02-28T07:58:59;5.97;;;2.60;;
29240;SDS011;16268;49.880;8.648;2023-02-28T08:01:26;4.80;;;2.90;;
29240;SDS011;16268;49.880;8.648;2023-02-28T08:03:52;5.53;;;2.85;;
29240;SDS011;16268;49.880;8.648;2023-02-28T08:06:20;5.35;;;2.58;;
29240;SDS011;16268;49.880;8.648;2023-02-28T08:08:47;5.93;;;2.90;;
29240;SDS011;16268;49.880;8.648;2023-02-28T08:11:13;5.77;;;2.70;;
29240;SDS011;16268;49.880;8.648;2023-02-28T08:13:39;5.53;;;2.97;;
29240;SDS011;16268;49.880;8.648;2023-02-28T08:16:07;5.80;;;3.13;;
29240;SDS011;16268;49.880;8.648;2023-02-28T08:18:32;8.35;;;3.38;;
29240;SDS011;16268;49.880;8.648;2023-02-28T08:20:58;7.03;;;3.10;;
29240;SDS011;16268;49.880;8.648;2023-02-28T08:23:24;5.93;;;2.80;;
29240;SDS011;16268;49.880;8.648;2023-02-28T08:25:53;7.57;;;3.05;;
29240;SDS011;16268;49.880;8.648;2023-02-28T08:28:20;5.30;;;2.92;;
29240;SDS011;16268;49.880;8.648;2023-02-28T08:30:46;4.95;;;3.00;;
29240;SDS011;16268;49.880;8.648;2023-02-28T08:33:11;7.93;;;3.38;;
29240;SDS011;16268;49.880;8.648;2023-02-28T08:35:37;7.38;;;3.20;;
29240;SDS011;16268;49.880;8.648;2023-02-28T08:38:02;6.47;;;3.08;;
29240;SDS011;16268;49.880;8.648;2023-02-28T08:40:28;5.57;;;3.05;;
29240;SDS011;16268;49.880;8.648;2023-02-28T08:42:53;7.63;;;3.10;;
29240;SDS011;16268;49.880;8.648;2023-02-28T08:45:19;5.10;;;2.80;;
29240;SDS011;16268;49.880;8.648;2023-02-28T08:47:44;5.28;;;2.60;;
29240;SDS011;16268;49.880;8.648;2023-02-28T08:50:10;5.25;;;3.10;;
29240;SDS011;16268;49.880;8.648;2023-02-28T08:52:36;5.40;;;2.80;;
29240;SDS011;16268;49.880;8.648;2023-02-28T08:55:03;5.75;;;3.00;;
29240;SDS011;16268;49.880;8.648;2023-02-28T08:57:29;6.53;;;3.10;;
29240;SDS011;16268;49.880;8.648;2023-02-28T08:59:54;7.82;;;3.08;;
29240;SDS011;16268;49.880;8.648;2023-02-28T09:02:20;7.18;;;3.03;;
29240;SDS011;16268;49.880;8.648;2023-02-28T09:04:45;6.82;;;3.28;;
29240;SDS011;16268;49.880;8.648;2023-02-28T09:07:11;7.57;;;3.55;;
29240;SDS011;16268;49.880;8.648;2023-02-28T09:09:37;7.03;;;3.72;;
29240;SDS011;16268;49.880;8.648;2023-02-28T09:12:18;7.68;;;3.60;;
29240;SDS011;16268;49.880;8.648;2023-02-28T09:14:45;8.25;;;4.20;;
29240;SDS011;16268;49.880;8.648;2023-02-28T09:17:10;6.57;;;3.60;;
29240;SDS011;16268;49.880;8.648;2023-02-28T09:19:36;5.95;;;3.53;;
29240;SDS011;16268;49.880;8.648;2023-02-28T09:22:02;6.53;;;3.60;;
29240;SDS011;16268;49.880;8.648;2023-02-28T09:24:27;8.32;;;3.97;;
29240;SDS011;16268;49.880;8.648;2023-02-28T09:26:53;8.15;;;4.30;;
29240;SDS011;16268;49.880;8.648;2023-02-28T09:29:18;11.00;;;4.03;;
29240;SDS011;16268;49.880;8.648;2023-02-28T09:31:49;8.93;;;4.50;;
29240;SDS011;16268;49.880;8.648;2023-02-28T09:34:15;6.93;;;3.88;;
29240;SDS011;16268;49.880;8.648;2023-02-28T09:36:42;7.53;;;4.45;;
29240;SDS011;16268;49.880;8.648;2023-02-28T09:39:08;6.35;;;3.70;;
29240;SDS011;16268;49.880;8.648;2023-02-28T09:41:52;9.00;;;4.32;;
29240;SDS011;16268;49.880;8.648;2023-02-28T09:46:55;7.18;;;4.10;;
29240;SDS011;16268;49.880;8.648;2023-02-28T09:49:28;8.77;;;4.78;;
29240;SDS011;16268;49.880;8.648;2023-02-28T09:52:01;8.10;;;4.63;;
29240;SDS011;16268;49.880;8.648;2023-02-28T09:54:30;8.35;;;4.75;;
29240;SDS011;16268;49.880;8.648;2023-02-28T09:57:04;8.55;;;4.55;;
29240;SDS011;16268;49.880;8.648;2023-02-28T10:02:41;7.13;;;4.60;;
29240;SDS011;16268;49.880;8.648;2023-02-28T10:05:12;9.20;;;4.88;;
29240;SDS011;16268;49.880;8.648;2023-02-28T10:08:03;8.45;;;5.00;;
29240;SDS011;16268;49.880;8.648;2023-02-28T10:10:46;9.93;;;5.07;;
29240;SDS011;16268;49.880;8.648;2023-02-28T10:15:47;7.75;;;4.90;;
29240;SDS011;16268;49.880;8.648;2023-02-28T10:18:19;8.82;;;4.72;;
29240;SDS011;16268;49.880;8.648;2023-02-28T10:20:49;10.85;;;5.20;;
29240;SDS011;16268;49.880;8.648;2023-02-28T10:23:21;7.78;;;4.70;;
29240;SDS011;16268;49.880;8.648;2023-02-28T10:25:59;9.27;;;4.95;;
29240;SDS011;16268;49.880;8.648;2023-02-28T10:28:26;9.07;;;5.00;;
29240;SDS011;16268;49.880;8.648;2023-02-28T10:33:32;8.90;;;4.40;;
29240;SDS011;16268;49.880;8.648;2023-02-28T10:35:59;9.02;;;4.60;;
29240;SDS011;16268;49.880;8.648;2023-02-28T10:38:26;8.70;;;4.78;;
29240;SDS011;16268;49.880;8.648;2023-02-28T10:41:07;10.45;;;5.25;;
29240;SDS011;16268;49.880;8.648;2023-02-28T10:43:34;8.13;;;4.60;;
29240;SDS011;16268;49.880;8.648;2023-02-28T10:46:05;8.05;;;4.68;;
29240;SDS011;16268;49.880;8.648;2023-02-28T10:48:40;7.80;;;4.75;;
29240;SDS011;16268;49.880;8.648;2023-02-28T10:51:13;9.38;;;4.85;;
29240;SDS011;16268;49.880;8.648;2023-02-28T10:56:20;7.65;;;4.70;;
29240;SDS011;16268;49.880;8.648;2023-02-28T11:01:47;7.95;;;4.93;;
29240;SDS011;16268;49.880;8.648;2023-02-28T11:09:41;8.25;;;5.03;;
29240;SDS011;16268;49.880;8.648;2023-02-28T11:12:45;7.28;;;4.60;;
29240;SDS011;16268;49.880;8.648;2023-02-28T11:15:07;8.52;;;4.95;;
29240;SDS011;16268;49.880;8.648;2023-02-28T11:20:32;7.95;;;4.57;;
29240;SDS011;16268;49.880;8.648;2023-02-28T11:23:00;7.05;;;4.50;;
29240;SDS011;16268;49.880;8.648;2023-02-28T11:25:29;7.97;;;4.55;;
29240;SDS011;16268;49.880;8.648;2023-02-28T11:27:58;8.40;;;4.47;;
29240;SDS011;16268;49.880;8.648;2023-02-28T11:30:37;9.13;;;4.93;;
29240;SDS011;16268;49.880;8.648;2023-02-28T11:33:26;7.55;;;4.50;;
29240;SDS011;16268;49.880;8.648;2023-02-28T11:35:56;10.45;;;4.82;;
29240;SDS011;16268;49.880;8.648;2023-02-28T11:38:28;7.00;;;4.30;;
29240;SDS011;16268;49.880;8.648;2023-02-28T11:40:59;7.72;;;5.10;;
29240;SDS011;16268;49.880;8.648;2023-02-28T11:52:02;8.73;;;4.85;;
29240;SDS011;16268;49.880;8.648;2023-02-28T12:07:55;7.55;;;5.30;;
29240;SDS011;16268;49.880;8.648;2023-02-28T12:10:30;7.60;;;4.78;;
29240;SDS011;16268;49.880;8.648;2023-02-28T12:13:26;9.63;;;4.47;;
29240;SDS011;16268;49.880;8.648;2023-02-28T12:21:52;8.18;;;4.68;;
29240;SDS011;16268;49.880;8.648;2023-02-28T12:27:19;6.32;;;3.80;;
29240;SDS011;16268;49.880;8.648;2023-02-28T12:32:36;8.38;;;4.82;;
29240;SDS011;16268;49.880;8.648;2023-02-28T12:37:36;6.90;;;4.70;;
29240;SDS011;16268;49.880;8.648;2023-02-28T12:40:29;8.85;;;5.10;;
29240;SDS011;16268;49.880;8.648;2023-02-28T12:42:58;7.60;;;5.45;;
29240;SDS011;16268;49.880;8.648;2023-02-28T12:45:38;7.95;;;4.75;;
29240;SDS011;16268;49.880;8.648;2023-02-28T12:48:50;8.85;;;5.53;;
29240;SDS011;16268;49.880;8.648;2023-02-28T12:51:17;10.60;;;5.50;;
29240;SDS011;16268;49.880;8.648;2023-02-28T12:53:53;8.60;;;4.90;;
29240;SDS011;16268;49.880;8.648;2023-02-28T12:59:19;9.65;;;5.30;;
29240;SDS011;16268;49.880;8.648;2023-02-28T13:01:56;10.45;;;5.55;;
29240;SDS011;16268;49.880;8.648;2023-02-28T13:04:55;7.95;;;5.35;;
29240;SDS011;16268;49.880;8.648;2023-02-28T13:10:05;8.65;;;5.82;;
29240;SDS011;16268;49.880;8.648;2023-02-28T13:12:32;9.30;;;5.97;;
29240;SDS011;16268;49.880;8.648;2023-02-28T13:15:22;8.98;;;6.00;;
29240;SDS011;16268;49.880;8.648;2023-02-28T13:17:49;10.73;;;5.93;;
29240;SDS011;16268;49.880;8.648;2023-02-28T13:20:19;9.00;;;5.53;;
29240;SDS011;16268;49.880;8.648;2023-02-28T13:22:53;10.15;;;5.82;;
29240;SDS011;16268;49.880;8.648;2023-02-28T13:27:48;8.05;;;5.07;;
29240;SDS011;16268;49.880;8.648;2023-02-28T13:36:10;9.77;;;5.18;;
29240;SDS011;16268;49.880;8.648;2023-02-28T13:38:54;10.20;;;5.78;;
29240;SDS011;16268;49.880;8.648;2023-02-28T13:46:28;10.55;;;5.45;;
29240;SDS011;16268;49.880;8.648;2023-02-28T13:48:53;8.82;;;5.35;;
29240;SDS011;16268;49.880;8.648;2023-02-28T13:57:04;8.00;;;5.40;;
29240;SDS011;16268;49.880;8.648;2023-02-28T14:05:43;7.65;;;5.00;;
29240;SDS011;16268;49.880;8.648;2023-02-28T14:08:19;8.50;;;5.30;;
29240;SDS011;16268;49.880;8.648;2023-02-28T14:10:52;9.33;;;5.53;;
29240;SDS011;16268;49.880;8.648;2023-02-28T14:16:54;8.52;;;5.28;;
29240;SDS011;16268;49.880;8.648;2023-02-28T14:19:12;9.88;;;5.57;;
29240;SDS011;16268;49.880;8.648;2023-02-28T14:38:23;11.88;;;5.63;;
29240;SDS011;16268;49.880;8.648;2023-02-28T14:40:55;8.82;;;5.13;;
29240;SDS011;16268;49.880;8.648;2023-02-28T14:43:24;8.45;;;5.25;;
29240;SDS011;16268;49.880;8.648;2023-02-28T14:45:52;9.48;;;5.47;;
29240;SDS011;16268;49.880;8.648;2023-02-28T14:50:57;9.38;;;5.55;;
29240;SDS011;16268;49.880;8.648;2023-02-28T14:53:26;8.35;;;5.13;;
29240;SDS011;16268;49.880;8.648;2023-02-28T14:55:54;9.35;;;5.47;;
29240;SDS011;16268;49.880;8.648;2023-02-28T14:58:27;10.27;;;5.43;;
29240;SDS011;16268;49.880;8.648;2023-02-28T15:00:55;7.60;;;5.10;;
29240;SDS011;16268;49.880;8.648;2023-02-28T15:05:55;7.30;;;4.63;;
29240;SDS011;16268;49.880;8.648;2023-02-28T15:08:23;10.35;;;5.63;;
29240;SDS011;16268;49.880;8.648;2023-02-28T15:13:22;9.45;;;5.47;;
29240;SDS011;16268;49.880;8.648;2023-02-28T15:15:59;7.22;;;4.55;;
29240;SDS011;16268;49.880;8.648;2023-02-28T15:18:48;8.48;;;5.22;;
29240;SDS011;16268;49.880;8.648;2023-02-28T15:21:21;8.90;;;5.15;;
29240;SDS011;16268;49.880;8.648;2023-02-28T15:23:51;7.25;;;4.72;;
29240;SDS011;16268;49.880;8.648;2023-02-28T15:26:29;8.73;;;5.35;;
29240;SDS011;16268;49.880;8.648;2023-02-28T15:28:59;9.20;;;5.15;;
29240;SDS011;16268;49.880;8.648;2023-02-28T15:31:40;7.20;;;4.73;;
29240;SDS011;16268;49.880;8.648;2023-02-28T15:34:19;8.95;;;5.07;;
29240;SDS011;16268;49.880;8.648;2023-02-28T15:36:52;10.80;;;5.50;;
29240;SDS011;16268;49.880;8.648;2023-02-28T15:39:19;8.13;;;4.90;;
29240;SDS011;16268;49.880;8.648;2023-02-28T15:41:49;7.90;;;4.72;;
29240;SDS011;16268;49.880;8.648;2023-02-28T15:49:29;8.00;;;4.90;;
29240;SDS011;16268;49.880;8.648;2023-02-28T15:52:11;7.70;;;4.82;;
29240;SDS011;16268;49.880;8.648;2023-02-28T15:54:40;10.48;;;5.50;;
29240;SDS011;16268;49.880;8.648;2023-02-28T15:57:07;8.27;;;4.72;;
29240;SDS011;16268;49.880;8.648;2023-02-28T15:59:39;9.23;;;5.32;;
29240;SDS011;16268;49.880;8.648;2023-02-28T16:02:16;9.68;;;4.90;;
29240;SDS011;16268;49.880;8.648;2023-02-28T16:05:01;8.27;;;4.70;;
29240;SDS011;16268;49.880;8.648;2023-02-28T16:07:53;9.73;;;5.30;;
29240;SDS011;16268;49.880;8.648;2023-02-28T16:10:23;8.68;;;5.10;;
29240;SDS011;16268;49.880;8.648;2023-02-28T16:12:52;8.68;;;5.43;;
29240;SDS011;16268;49.880;8.648;2023-02-28T16:15:25;8.20;;;5.10;;
29240;SDS011;16268;49.880;8.648;2023-02-28T16:17:53;8.57;;;5.18;;
29240;SDS011;16268;49.880;8.648;2023-02-28T16:20:24;8.52;;;4.70;;
29240;SDS011;16268;49.880;8.648;2023-02-28T16:22:52;9.82;;;5.50;;
29240;SDS011;16268;49.880;8.648;2023-02-28T16:25:19;10.07;;;5.32;;
29240;SDS011;16268;49.880;8.648;2023-02-28T16:27:48;8.27;;;5.25;;
29240;SDS011;16268;49.880;8.648;2023-02-28T16:30:20;9.35;;;4.70;;
29240;SDS011;16268;49.880;8.648;2023-02-28T16:32:47;8.60;;;4.82;;
29240;SDS011;16268;49.880;8.648;2023-02-28T16:35:15;9.93;;;5.30;;
29240;SDS011;16268;49.880;8.648;2023-02-28T16:37:42;8.15;;;4.88;;
29240;SDS011;16268;49.880;8.648;2023-02-28T16:40:12;9.43;;;5.13;;
29240;SDS011;16268;49.880;8.648;2023-02-28T16:42:41;9.00;;;5.10;;
29240;SDS011;16268;49.880;8.648;2023-02-28T16:45:14;9.73;;;5.15;;
29240;SDS011;16268;49.880;8.648;2023-02-28T16:47:47;8.80;;;5.13;;
29240;SDS011;16268;49.880;8.648;2023-02-28T16:50:33;8.82;;;5.10;;
29240;SDS011;16268;49.880;8.648;2023-02-28T16:52:58;10.13;;;5.68;;
29240;SDS011;16268;49.880;8.648;2023-02-28T16:55:24;9.55;;;5.43;;
29240;SDS011;16268;49.880;8.648;2023-02-28T16:57:55;10.23;;;6.05;;
29240;SDS011;16268;49.880;8.648;2023-02-28T17:00:22;9.27;;;5.50;;
29240;SDS011;16268;49.880;8.648;2023-02-28T17:02:49;9.07;;;5.38;;
29240;SDS011;16268;49.880;8.648;2023-02-28T17:05:15;10.90;;;5.18;;
29240;SDS011;16268;49.880;8.648;2023-02-28T17:07:42;10.35;;;5.78;;
29240;SDS011;16268;49.880;8.648;2023-02-28T17:12:41;11.02;;;5.60;;
29240;SDS011;16268;49.880;8.648;2023-02-28T17:15:08;10.98;;;5.72;;
29240;SDS011;16268;49.880;8.648;2023-02-28T17:17:35;9.75;;;5.45;;
29240;SDS011;16268;49.880;8.648;2023-02-28T17:20:01;9.27;;;5.47;;
29240;SDS011;16268;49.880;8.648;2023-02-28T17:22:27;10.25;;;5.57;;
29240;SDS011;16268;49.880;8.648;2023-02-28T17:24:53;11.10;;;6.22;;
29240;SDS011;16268;49.880;8.648;2023-02-28T17:27:22;10.05;;;5.57;;
29240;SDS011;16268;49.880;8.648;2023-02-28T17:29:48;10.75;;;6.07;;
29240;SDS011;16268;49.880;8.648;2023-02-28T17:32:13;10.85;;;6.57;;
29240;SDS011;16268;49.880;8.648;2023-02-28T17:34:39;9.18;;;6.05;;
29240;SDS011;16268;49.880;8.648;2023-02-28T17:37:05;10.95;;;5.75;;
29240;SDS011;16268;49.880;8.648;2023-02-28T17:39:30;10.88;;;6.07;;
29240;SDS011;16268;49.880;8.648;2023-02-28T17:41:56;10.63;;;5.70;;
29240;SDS011;16268;49.880;8.648;2023-02-28T17:44:22;10.38;;;6.28;;
29240;SDS011;16268;49.880;8.648;2023-02-28T17:46:49;10.27;;;6.03;;
29240;SDS011;16268;49.880;8.648;2023-02-28T17:49:15;10.98;;;6.30;;